sensor_id;sensor_type;location;lat;lon;timestamp;P1;durP1;ratioP1;P2;durP2;ratioP2
10617;SDS011;5356;43.526;26.534;2023-01-23T00:00:28;7.65;;;3.92;;
10617;SDS011;5356;43.526;26.534;2023-01-23T00:02:54;7.47;;;4.15;;
10617;SDS011;5356;43.526;26.534;2023-01-23T00:05:20;7.38;;;3.60;;
10617;SDS011;5356;43.526;26.534;2023-01-23T00:07:46;5.47;;;3.63;;
10617;SDS011;5356;43.526;26.534;2023-01-23T00:10:11;10.75;;;3.72;;
10617;SDS011;5356;43.526;26.534;2023-01-23T00:12:39;9.25;;;3.60;;
10617;SDS011;5356;43.526;26.534;2023-01-23T00:15:06;10.55;;;3.50;;
10617;SDS011;5356;43.526;26.534;2023-01-23T00:17:32;10.27;;;3.78;;
10617;SDS011;5356;43.526;26.534;2023-01-23T00:19:57;8.80;;;4.13;;
10617;SDS011;5356;43.526;26.534;2023-01-23T00:22:23;5.63;;;3.17;;
10617;SDS011;5356;43.526;26.534;2023-01-23T00:24:49;7.22;;;3.78;;
10617;SDS011;5356;43.526;26.534;2023-01-23T00:27:14;7.20;;;3.92;;
10617;SDS011;5356;43.526;26.534;2023-01-23T00:29:40;9.13;;;4.22;;
10617;SDS011;5356;43.526;26.534;2023-01-23T00:32:05;9.25;;;4.22;;
10617;SDS011;5356;43.526;26.534;2023-01-23T00:34:30;7.07;;;4.75;;
10617;SDS011;5356;43.526;26.534;2023-01-23T00:36:56;6.78;;;3.83;;
10617;SDS011;5356;43.526;26.534;2023-01-23T00:39:21;6.68;;;3.47;;
10617;SDS011;5356;43.526;26.534;2023-01-23T00:41:47;7.00;;;3.92;;
10617;SDS011;5356;43.526;26.534;2023-01-23T00:44:14;7.07;;;3.80;;
10617;SDS011;5356;43.526;26.534;2023-01-23T00:46:40;8.02;;;4.03;;
10617;SDS011;5356;43.526;26.534;2023-01-23T00:49:06;14.32;;;4.07;;
10617;SDS011;5356;43.526;26.534;2023-01-23T00:51:32;6.05;;;3.65;;
10617;SDS011;5356;43.526;26.534;2023-01-23T00:53:58;7.82;;;3.72;;
10617;SDS011;5356;43.526;26.534;2023-01-23T00:56:24;7.80;;;3.63;;
10617;SDS011;5356;43.526;26.534;2023-01-23T00:58:53;10.68;;;4.80;;
10617;SDS011;5356;43.526;26.534;2023-01-23T01:01:18;7.45;;;4.10;;
10617;SDS011;5356;43.526;26.534;2023-01-23T01:03:46;7.75;;;3.65;;
10617;SDS011;5356;43.526;26.534;2023-01-23T01:06:12;7.47;;;3.63;;
10617;SDS011;5356;43.526;26.534;2023-01-23T01:08:37;9.02;;;4.38;;
10617;SDS011;5356;43.526;26.534;2023-01-23T01:11:03;7.65;;;3.78;;
10617;SDS011;5356;43.526;26.534;2023-01-23T01:13:29;9.93;;;4.10;;
10617;SDS011;5356;43.526;26.534;2023-01-23T01:15:54;8.52;;;4.53;;
10617;SDS011;5356;43.526;26.534;2023-01-23T01:18:21;10.20;;;4.00;;
10617;SDS011;5356;43.526;26.534;2023-01-23T01:20:47;6.93;;;3.83;;
10617;SDS011;5356;43.526;26.534;2023-01-23T01:23:13;6.28;;;4.22;;
10617;SDS011;5356;43.526;26.534;2023-01-23T01:25:39;8.02;;;4.35;;
10617;SDS011;5356;43.526;26.534;2023-01-23T01:28:04;8.88;;;4.43;;
10617;SDS011;5356;43.526;26.534;2023-01-23T01:30:30;10.25;;;5.03;;
10617;SDS011;5356;43.526;26.534;2023-01-23T01:32:56;9.95;;;4.95;;
10617;SDS011;5356;43.526;26.534;2023-01-23T01:35:22;10.10;;;5.20;;
10617;SDS011;5356;43.526;26.534;2023-01-23T01:37:48;9.73;;;5.68;;
10617;SDS011;5356;43.526;26.534;2023-01-23T01:40:18;12.85;;;4.80;;
10617;SDS011;5356;43.526;26.534;2023-01-23T01:42:48;9.88;;;4.68;;
10617;SDS011;5356;43.526;26.534;2023-01-23T01:51:29;11.50;;;4.60;;
10617;SDS011;5356;43.526;26.534;2023-01-23T01:56:31;9.07;;;5.10;;
10617;SDS011;5356;43.526;26.534;2023-01-23T01:59:02;14.23;;;5.28;;
10617;SDS011;5356;43.526;26.534;2023-01-23T02:01:28;10.18;;;4.85;;
10617;SDS011;5356;43.526;26.534;2023-01-23T02:03:54;9.32;;;4.95;;
10617;SDS011;5356;43.526;26.534;2023-01-23T02:06:20;12.18;;;5.25;;
10617;SDS011;5356;43.526;26.534;2023-01-23T02:11:28;12.93;;;4.85;;
10617;SDS011;5356;43.526;26.534;2023-01-23T02:13:54;9.68;;;4.55;;
10617;SDS011;5356;43.526;26.534;2023-01-23T02:16:26;11.25;;;4.85;;
10617;SDS011;5356;43.526;26.534;2023-01-23T02:18:56;10.38;;;5.05;;
10617;SDS011;5356;43.526;26.534;2023-01-23T02:21:25;13.10;;;5.28;;
10617;SDS011;5356;43.526;26.534;2023-01-23T02:26:30;14.85;;;5.75;;
10617;SDS011;5356;43.526;26.534;2023-01-23T02:29:01;9.48;;;4.97;;
10617;SDS011;5356;43.526;26.534;2023-01-23T02:31:27;10.30;;;5.53;;
10617;SDS011;5356;43.526;26.534;2023-01-23T02:33:56;12.05;;;5.20;;
10617;SDS011;5356;43.526;26.534;2023-01-23T02:36:25;12.25;;;5.82;;
10617;SDS011;5356;43.526;26.534;2023-01-23T02:41:31;9.43;;;5.65;;
10617;SDS011;5356;43.526;26.534;2023-01-23T02:44:21;11.13;;;5.50;;
10617;SDS011;5356;43.526;26.534;2023-01-23T02:46:55;12.52;;;4.75;;
10617;SDS011;5356;43.526;26.534;2023-01-23T02:49:22;11.13;;;5.65;;
10617;SDS011;5356;43.526;26.534;2023-01-23T02:51:48;13.23;;;5.15;;
10617;SDS011;5356;43.526;26.534;2023-01-23T02:54:15;10.25;;;5.72;;
10617;SDS011;5356;43.526;26.534;2023-01-23T02:56:42;10.65;;;6.25;;
10617;SDS011;5356;43.526;26.534;2023-01-23T02:59:08;7.75;;;3.92;;
10617;SDS011;5356;43.526;26.534;2023-01-23T03:01:52;11.25;;;5.88;;
10617;SDS011;5356;43.526;26.534;2023-01-23T03:04:18;10.18;;;4.68;;
10617;SDS011;5356;43.526;26.534;2023-01-23T03:06:43;10.40;;;5.53;;
10617;SDS011;5356;43.526;26.534;2023-01-23T03:09:13;9.77;;;4.90;;
10617;SDS011;5356;43.526;26.534;2023-01-23T03:11:41;9.32;;;6.00;;
10617;SDS011;5356;43.526;26.534;2023-01-23T03:14:09;11.13;;;5.82;;
10617;SDS011;5356;43.526;26.534;2023-01-23T03:16:37;13.90;;;5.45;;
10617;SDS011;5356;43.526;26.534;2023-01-23T03:19:03;13.70;;;5.15;;
10617;SDS011;5356;43.526;26.534;2023-01-23T03:21:32;12.45;;;5.20;;
10617;SDS011;5356;43.526;26.534;2023-01-23T03:23:59;10.50;;;5.03;;
10617;SDS011;5356;43.526;26.534;2023-01-23T03:26:24;14.70;;;6.22;;
10617;SDS011;5356;43.526;26.534;2023-01-23T03:28:50;18.13;;;6.03;;
10617;SDS011;5356;43.526;26.534;2023-01-23T03:31:34;13.65;;;5.97;;
10617;SDS011;5356;43.526;26.534;2023-01-23T03:33:59;12.95;;;6.65;;
10617;SDS011;5356;43.526;26.534;2023-01-23T03:36:25;11.77;;;5.03;;
10617;SDS011;5356;43.526;26.534;2023-01-23T03:38:50;12.60;;;5.82;;
10617;SDS011;5356;43.526;26.534;2023-01-23T03:41:34;13.88;;;5.50;;
10617;SDS011;5356;43.526;26.534;2023-01-23T03:44:02;14.27;;;6.18;;
10617;SDS011;5356;43.526;26.534;2023-01-23T03:46:27;14.88;;;6.18;;
10617;SDS011;5356;43.526;26.534;2023-01-23T03:48:53;14.95;;;6.18;;
10617;SDS011;5356;43.526;26.534;2023-01-23T03:51:18;12.93;;;6.75;;
10617;SDS011;5356;43.526;26.534;2023-01-23T03:53:44;11.57;;;5.68;;
10617;SDS011;5356;43.526;26.534;2023-01-23T03:56:09;11.45;;;6.03;;
10617;SDS011;5356;43.526;26.534;2023-01-23T03:58:35;15.25;;;5.45;;
10617;SDS011;5356;43.526;26.534;2023-01-23T04:01:03;12.13;;;6.15;;
10617;SDS011;5356;43.526;26.534;2023-01-23T04:03:30;12.63;;;5.88;;
10617;SDS011;5356;43.526;26.534;2023-01-23T04:05:56;14.27;;;5.68;;
10617;SDS011;5356;43.526;26.534;2023-01-23T04:08:22;15.93;;;6.35;;
10617;SDS011;5356;43.526;26.534;2023-01-23T04:10:48;9.57;;;5.72;;
10617;SDS011;5356;43.526;26.534;2023-01-23T04:13:13;11.27;;;6.13;;
10617;SDS011;5356;43.526;26.534;2023-01-23T04:15:39;15.20;;;5.72;;
10617;SDS011;5356;43.526;26.534;2023-01-23T04:18:04;10.90;;;6.78;;
10617;SDS011;5356;43.526;26.534;2023-01-23T04:20:30;14.85;;;6.22;;
10617;SDS011;5356;43.526;26.534;2023-01-23T04:22:55;14.10;;;5.82;;
10617;SDS011;5356;43.526;26.534;2023-01-23T04:25:21;13.10;;;6.40;;
10617;SDS011;5356;43.526;26.534;2023-01-23T04:27:46;15.60;;;6.45;;
10617;SDS011;5356;43.526;26.534;2023-01-23T04:30:12;13.38;;;6.53;;
10617;SDS011;5356;43.526;26.534;2023-01-23T04:32:38;15.25;;;5.88;;
10617;SDS011;5356;43.526;26.534;2023-01-23T04:35:03;11.50;;;5.60;;
10617;SDS011;5356;43.526;26.534;2023-01-23T04:37:29;9.23;;;5.80;;
10617;SDS011;5356;43.526;26.534;2023-01-23T04:39:54;13.43;;;5.82;;
10617;SDS011;5356;43.526;26.534;2023-01-23T04:42:20;8.07;;;4.68;;
10617;SDS011;5356;43.526;26.534;2023-01-23T04:44:45;9.23;;;4.60;;
10617;SDS011;5356;43.526;26.534;2023-01-23T04:47:11;10.13;;;5.15;;
10617;SDS011;5356;43.526;26.534;2023-01-23T04:49:36;11.57;;;5.00;;
10617;SDS011;5356;43.526;26.534;2023-01-23T04:52:02;12.40;;;4.78;;
10617;SDS011;5356;43.526;26.534;2023-01-23T04:54:27;10.95;;;4.18;;
10617;SDS011;5356;43.526;26.534;2023-01-23T04:56:53;11.93;;;5.18;;
10617;SDS011;5356;43.526;26.534;2023-01-23T04:59:18;9.90;;;5.20;;
10617;SDS011;5356;43.526;26.534;2023-01-23T05:01:45;11.15;;;4.88;;
10617;SDS011;5356;43.526;26.534;2023-01-23T05:04:11;9.00;;;4.38;;
10617;SDS011;5356;43.526;26.534;2023-01-23T05:06:37;10.80;;;5.38;;
10617;SDS011;5356;43.526;26.534;2023-01-23T05:09:02;9.15;;;4.88;;
10617;SDS011;5356;43.526;26.534;2023-01-23T05:11:28;15.30;;;6.63;;
10617;SDS011;5356;43.526;26.534;2023-01-23T05:13:54;13.90;;;6.40;;
10617;SDS011;5356;43.526;26.534;2023-01-23T05:16:19;12.13;;;6.05;;
10617;SDS011;5356;43.526;26.534;2023-01-23T05:18:45;12.80;;;6.25;;
10617;SDS011;5356;43.526;26.534;2023-01-23T05:21:10;10.68;;;5.95;;
10617;SDS011;5356;43.526;26.534;2023-01-23T05:23:36;13.52;;;5.75;;
10617;SDS011;5356;43.526;26.534;2023-01-23T05:26:05;14.60;;;6.28;;
10617;SDS011;5356;43.526;26.534;2023-01-23T05:28:30;8.65;;;5.22;;
10617;SDS011;5356;43.526;26.534;2023-01-23T05:30:55;9.10;;;5.75;;
10617;SDS011;5356;43.526;26.534;2023-01-23T05:33:21;15.45;;;6.07;;
10617;SDS011;5356;43.526;26.534;2023-01-23T05:35:46;10.90;;;4.93;;
10617;SDS011;5356;43.526;26.534;2023-01-23T05:38:12;16.35;;;6.20;;
10617;SDS011;5356;43.526;26.534;2023-01-23T05:40:38;11.07;;;5.68;;
10617;SDS011;5356;43.526;26.534;2023-01-23T05:43:03;17.42;;;6.55;;
10617;SDS011;5356;43.526;26.534;2023-01-23T05:45:29;14.20;;;6.15;;
10617;SDS011;5356;43.526;26.534;2023-01-23T05:47:54;14.07;;;5.05;;
10617;SDS011;5356;43.526;26.534;2023-01-23T05:50:20;15.20;;;5.63;;
10617;SDS011;5356;43.526;26.534;2023-01-23T05:52:49;12.77;;;5.38;;
10617;SDS011;5356;43.526;26.534;2023-01-23T05:55:15;14.15;;;5.60;;
10617;SDS011;5356;43.526;26.534;2023-01-23T05:57:40;13.23;;;6.30;;
10617;SDS011;5356;43.526;26.534;2023-01-23T06:00:08;11.10;;;4.97;;
10617;SDS011;5356;43.526;26.534;2023-01-23T06:02:35;15.15;;;5.68;;
10617;SDS011;5356;43.526;26.534;2023-01-23T06:05:00;15.75;;;5.35;;
10617;SDS011;5356;43.526;26.534;2023-01-23T06:07:26;10.38;;;5.35;;
10617;SDS011;5356;43.526;26.534;2023-01-23T06:09:51;16.95;;;5.47;;
10617;SDS011;5356;43.526;26.534;2023-01-23T06:12:17;13.13;;;5.22;;
10617;SDS011;5356;43.526;26.534;2023-01-23T06:14:42;17.25;;;8.20;;
10617;SDS011;5356;43.526;26.534;2023-01-23T06:17:08;12.77;;;5.55;;
10617;SDS011;5356;43.526;26.534;2023-01-23T06:19:35;16.25;;;6.68;;
10617;SDS011;5356;43.526;26.534;2023-01-23T06:22:01;13.27;;;5.70;;
10617;SDS011;5356;43.526;26.534;2023-01-23T06:24:26;12.23;;;5.57;;
10617;SDS011;5356;43.526;26.534;2023-01-23T06:26:52;20.95;;;7.57;;
10617;SDS011;5356;43.526;26.534;2023-01-23T06:29:17;12.13;;;5.97;;
10617;SDS011;5356;43.526;26.534;2023-01-23T06:31:43;13.30;;;6.00;;
10617;SDS011;5356;43.526;26.534;2023-01-23T06:34:10;13.23;;;5.00;;
10617;SDS011;5356;43.526;26.534;2023-01-23T06:36:35;12.30;;;4.45;;
10617;SDS011;5356;43.526;26.534;2023-01-23T06:39:01;9.02;;;4.50;;
10617;SDS011;5356;43.526;26.534;2023-01-23T06:41:26;13.77;;;5.95;;
10617;SDS011;5356;43.526;26.534;2023-01-23T06:43:52;13.10;;;4.53;;
10617;SDS011;5356;43.526;26.534;2023-01-23T06:46:18;14.77;;;5.03;;
10617;SDS011;5356;43.526;26.534;2023-01-23T06:48:44;14.52;;;6.13;;
10617;SDS011;5356;43.526;26.534;2023-01-23T06:51:09;14.02;;;6.00;;
10617;SDS011;5356;43.526;26.534;2023-01-23T06:53:35;15.50;;;6.43;;
10617;SDS011;5356;43.526;26.534;2023-01-23T06:56:01;16.90;;;7.50;;
10617;SDS011;5356;43.526;26.534;2023-01-23T06:58:29;17.65;;;7.47;;
10617;SDS011;5356;43.526;26.534;2023-01-23T07:00:55;17.60;;;7.18;;
10617;SDS011;5356;43.526;26.534;2023-01-23T07:03:21;21.48;;;8.63;;
10617;SDS011;5356;43.526;26.534;2023-01-23T07:05:46;18.65;;;7.47;;
10617;SDS011;5356;43.526;26.534;2023-01-23T07:08:12;14.20;;;5.65;;
10617;SDS011;5356;43.526;26.534;2023-01-23T07:10:37;13.85;;;5.60;;
10617;SDS011;5356;43.526;26.534;2023-01-23T07:13:04;17.50;;;5.45;;
10617;SDS011;5356;43.526;26.534;2023-01-23T07:15:30;11.00;;;4.57;;
10617;SDS011;5356;43.526;26.534;2023-01-23T07:17:56;10.35;;;5.25;;
10617;SDS011;5356;43.526;26.534;2023-01-23T07:20:22;13.27;;;4.65;;
10617;SDS011;5356;43.526;26.534;2023-01-23T07:22:51;13.27;;;5.32;;
10617;SDS011;5356;43.526;26.534;2023-01-23T07:25:21;11.02;;;4.90;;
10617;SDS011;5356;43.526;26.534;2023-01-23T07:27:47;12.18;;;5.38;;
10617;SDS011;5356;43.526;26.534;2023-01-23T07:30:12;12.90;;;6.35;;
10617;SDS011;5356;43.526;26.534;2023-01-23T07:32:38;15.13;;;5.15;;
10617;SDS011;5356;43.526;26.534;2023-01-23T07:35:03;12.73;;;5.45;;
10617;SDS011;5356;43.526;26.534;2023-01-23T07:37:29;14.07;;;5.32;;
10617;SDS011;5356;43.526;26.534;2023-01-23T07:39:55;16.30;;;6.40;;
10617;SDS011;5356;43.526;26.534;2023-01-23T07:42:20;8.90;;;5.10;;
10617;SDS011;5356;43.526;26.534;2023-01-23T07:44:46;10.40;;;5.32;;
10617;SDS011;5356;43.526;26.534;2023-01-23T07:47:11;8.57;;;4.05;;
10617;SDS011;5356;43.526;26.534;2023-01-23T07:49:37;10.73;;;4.90;;
10617;SDS011;5356;43.526;26.534;2023-01-23T07:52:02;12.02;;;4.90;;
10617;SDS011;5356;43.526;26.534;2023-01-23T07:54:28;10.07;;;4.85;;
10617;SDS011;5356;43.526;26.534;2023-01-23T07:56:54;11.13;;;5.57;;
10617;SDS011;5356;43.526;26.534;2023-01-23T07:59:20;14.10;;;6.28;;
10617;SDS011;5356;43.526;26.534;2023-01-23T08:01:45;12.43;;;5.70;;
10617;SDS011;5356;43.526;26.534;2023-01-23T08:04:12;14.50;;;6.05;;
10617;SDS011;5356;43.526;26.534;2023-01-23T08:06:38;10.98;;;5.90;;
10617;SDS011;5356;43.526;26.534;2023-01-23T08:09:03;11.82;;;4.82;;
10617;SDS011;5356;43.526;26.534;2023-01-23T08:11:29;8.25;;;4.45;;
10617;SDS011;5356;43.526;26.534;2023-01-23T08:13:54;15.50;;;5.65;;
10617;SDS011;5356;43.526;26.534;2023-01-23T08:16:20;11.77;;;4.97;;
10617;SDS011;5356;43.526;26.534;2023-01-23T08:18:45;8.48;;;4.78;;
10617;SDS011;5356;43.526;26.534;2023-01-23T08:21:11;9.43;;;5.28;;
10617;SDS011;5356;43.526;26.534;2023-01-23T08:23:36;8.02;;;5.38;;
10617;SDS011;5356;43.526;26.534;2023-01-23T08:26:03;11.88;;;4.63;;
10617;SDS011;5356;43.526;26.534;2023-01-23T08:28:30;9.13;;;4.35;;
10617;SDS011;5356;43.526;26.534;2023-01-23T08:31:00;10.13;;;5.25;;
10617;SDS011;5356;43.526;26.534;2023-01-23T08:33:26;9.75;;;4.35;;
10617;SDS011;5356;43.526;26.534;2023-01-23T08:35:52;9.25;;;5.07;;
10617;SDS011;5356;43.526;26.534;2023-01-23T08:38:20;9.00;;;4.72;;
10617;SDS011;5356;43.526;26.534;2023-01-23T08:40:46;9.02;;;4.85;;
10617;SDS011;5356;43.526;26.534;2023-01-23T08:43:13;10.85;;;6.22;;
10617;SDS011;5356;43.526;26.534;2023-01-23T08:45:39;10.35;;;4.53;;
10617;SDS011;5356;43.526;26.534;2023-01-23T08:48:06;11.48;;;4.60;;
10617;SDS011;5356;43.526;26.534;2023-01-23T08:50:33;11.57;;;5.47;;
10617;SDS011;5356;43.526;26.534;2023-01-23T08:52:59;11.60;;;6.03;;
10617;SDS011;5356;43.526;26.534;2023-01-23T08:55:24;13.07;;;4.90;;
10617;SDS011;5356;43.526;26.534;2023-01-23T08:57:52;10.57;;;4.90;;
10617;SDS011;5356;43.526;26.534;2023-01-23T09:00:18;12.07;;;6.50;;
10617;SDS011;5356;43.526;26.534;2023-01-23T09:02:44;11.27;;;5.65;;
10617;SDS011;5356;43.526;26.534;2023-01-23T09:05:09;12.48;;;6.00;;
10617;SDS011;5356;43.526;26.534;2023-01-23T09:07:35;14.13;;;5.85;;
10617;SDS011;5356;43.526;26.534;2023-01-23T09:10:02;10.60;;;5.68;;
10617;SDS011;5356;43.526;26.534;2023-01-23T09:12:28;16.98;;;6.65;;
10617;SDS011;5356;43.526;26.534;2023-01-23T09:14:54;12.75;;;5.70;;
10617;SDS011;5356;43.526;26.534;2023-01-23T09:17:19;11.20;;;4.70;;
10617;SDS011;5356;43.526;26.534;2023-01-23T09:19:44;9.88;;;4.72;;
10617;SDS011;5356;43.526;26.534;2023-01-23T09:22:10;12.85;;;5.40;;
10617;SDS011;5356;43.526;26.534;2023-01-23T09:24:35;14.77;;;5.30;;
10617;SDS011;5356;43.526;26.534;2023-01-23T09:27:01;12.50;;;4.50;;
10617;SDS011;5356;43.526;26.534;2023-01-23T09:29:26;10.70;;;5.20;;
10617;SDS011;5356;43.526;26.534;2023-01-23T09:31:52;9.95;;;4.78;;
10617;SDS011;5356;43.526;26.534;2023-01-23T09:34:18;7.63;;;4.03;;
10617;SDS011;5356;43.526;26.534;2023-01-23T09:36:43;11.48;;;4.93;;
10617;SDS011;5356;43.526;26.534;2023-01-23T09:39:09;10.77;;;4.68;;
10617;SDS011;5356;43.526;26.534;2023-01-23T09:41:34;8.25;;;4.55;;
10617;SDS011;5356;43.526;26.534;2023-01-23T09:46:48;12.48;;;5.53;;
10617;SDS011;5356;43.526;26.534;2023-01-23T09:52:02;10.50;;;4.45;;
10617;SDS011;5356;43.526;26.534;2023-01-23T09:54:45;10.52;;;4.53;;
10617;SDS011;5356;43.526;26.534;2023-01-23T10:02:48;13.77;;;5.40;;
10617;SDS011;5356;43.526;26.534;2023-01-23T10:05:16;8.70;;;4.70;;
10617;SDS011;5356;43.526;26.534;2023-01-23T10:10:50;9.68;;;4.00;;
10617;SDS011;5356;43.526;26.534;2023-01-23T10:13:30;14.15;;;5.10;;
10617;SDS011;5356;43.526;26.534;2023-01-23T10:16:13;15.15;;;5.25;;
10617;SDS011;5356;43.526;26.534;2023-01-23T10:18:51;11.38;;;5.30;;
10617;SDS011;5356;43.526;26.534;2023-01-23T10:26:40;17.17;;;6.30;;
10617;SDS011;5356;43.526;26.534;2023-01-23T10:29:20;10.45;;;5.25;;
10617;SDS011;5356;43.526;26.534;2023-01-23T10:31:55;13.73;;;8.43;;
10617;SDS011;5356;43.526;26.534;2023-01-23T10:34:27;11.90;;;6.10;;
10617;SDS011;5356;43.526;26.534;2023-01-23T10:37:14;13.80;;;6.22;;
10617;SDS011;5356;43.526;26.534;2023-01-23T10:40:02;12.65;;;4.50;;
10617;SDS011;5356;43.526;26.534;2023-01-23T10:42:32;11.30;;;6.60;;
10617;SDS011;5356;43.526;26.534;2023-01-23T10:44:57;10.18;;;5.32;;
10617;SDS011;5356;43.526;26.534;2023-01-23T10:49:57;13.23;;;5.60;;
10617;SDS011;5356;43.526;26.534;2023-01-23T10:52:31;13.80;;;6.60;;
10617;SDS011;5356;43.526;26.534;2023-01-23T10:55:27;11.43;;;5.35;;
10617;SDS011;5356;43.526;26.534;2023-01-23T10:57:58;12.15;;;6.13;;
10617;SDS011;5356;43.526;26.534;2023-01-23T11:05:47;9.85;;;4.65;;
10617;SDS011;5356;43.526;26.534;2023-01-23T11:08:35;11.50;;;5.00;;
10617;SDS011;5356;43.526;26.534;2023-01-23T11:13:40;12.38;;;5.50;;
10617;SDS011;5356;43.526;26.534;2023-01-23T11:16:16;10.80;;;5.43;;
10617;SDS011;5356;43.526;26.534;2023-01-23T11:21:22;11.23;;;5.68;;
10617;SDS011;5356;43.526;26.534;2023-01-23T11:24:16;9.98;;;4.45;;
10617;SDS011;5356;43.526;26.534;2023-01-23T11:26:58;22.85;;;9.88;;
10617;SDS011;5356;43.526;26.534;2023-01-23T11:32:12;12.35;;;5.38;;
10617;SDS011;5356;43.526;26.534;2023-01-23T11:34:39;13.70;;;6.95;;
10617;SDS011;5356;43.526;26.534;2023-01-23T11:40:03;15.25;;;6.00;;
10617;SDS011;5356;43.526;26.534;2023-01-23T11:42:36;10.13;;;4.82;;
10617;SDS011;5356;43.526;26.534;2023-01-23T11:45:11;10.50;;;5.07;;
10617;SDS011;5356;43.526;26.534;2023-01-23T11:47:55;11.80;;;5.82;;
10617;SDS011;5356;43.526;26.534;2023-01-23T12:01:14;12.57;;;4.63;;
10617;SDS011;5356;43.526;26.534;2023-01-23T12:09:37;12.75;;;5.75;;
10617;SDS011;5356;43.526;26.534;2023-01-23T12:12:21;12.50;;;5.78;;
10617;SDS011;5356;43.526;26.534;2023-01-23T12:18:03;12.48;;;6.78;;
10617;SDS011;5356;43.526;26.534;2023-01-23T12:28:52;11.93;;;4.88;;
10617;SDS011;5356;43.526;26.534;2023-01-23T12:34:29;10.57;;;4.78;;
10617;SDS011;5356;43.526;26.534;2023-01-23T12:42:19;8.10;;;4.15;;
10617;SDS011;5356;43.526;26.534;2023-01-23T12:47:19;9.35;;;5.60;;
10617;SDS011;5356;43.526;26.534;2023-01-23T12:49:50;14.77;;;5.00;;
10617;SDS011;5356;43.526;26.534;2023-01-23T12:52:39;10.00;;;4.45;;
10617;SDS011;5356;43.526;26.534;2023-01-23T12:55:32;12.65;;;4.80;;
10617;SDS011;5356;43.526;26.534;2023-01-23T12:57:59;12.43;;;5.55;;
10617;SDS011;5356;43.526;26.534;2023-01-23T13:11:27;12.52;;;6.53;;
10617;SDS011;5356;43.526;26.534;2023-01-23T13:14:17;10.15;;;4.93;;
10617;SDS011;5356;43.526;26.534;2023-01-23T13:16:50;10.65;;;5.07;;
10617;SDS011;5356;43.526;26.534;2023-01-23T13:19:24;13.95;;;6.18;;
10617;SDS011;5356;43.526;26.534;2023-01-23T13:25:01;14.63;;;5.55;;
10617;SDS011;5356;43.526;26.534;2023-01-23T13:32:50;13.85;;;6.40;;
10617;SDS011;5356;43.526;26.534;2023-01-23T13:43:54;13.60;;;6.03;;
10617;SDS011;5356;43.526;26.534;2023-01-23T13:52:12;17.58;;;6.55;;
10617;SDS011;5356;43.526;26.534;2023-01-23T13:54:58;11.93;;;5.32;;
10617;SDS011;5356;43.526;26.534;2023-01-23T13:57:46;14.05;;;5.13;;
10617;SDS011;5356;43.526;26.534;2023-01-23T14:00:13;16.08;;;5.40;;
10617;SDS011;5356;43.526;26.534;2023-01-23T14:02:48;17.17;;;6.53;;
10617;SDS011;5356;43.526;26.534;2023-01-23T14:05:48;11.23;;;5.65;;
10617;SDS011;5356;43.526;26.534;2023-01-23T14:08:27;11.68;;;5.88;;
10617;SDS011;5356;43.526;26.534;2023-01-23T14:10:53;17.25;;;6.70;;
10617;SDS011;5356;43.526;26.534;2023-01-23T14:13:18;13.98;;;5.28;;
10617;SDS011;5356;43.526;26.534;2023-01-23T14:15:52;15.32;;;6.07;;
10617;SDS011;5356;43.526;26.534;2023-01-23T14:23:42;13.20;;;5.43;;
10617;SDS011;5356;43.526;26.534;2023-01-23T14:26:12;15.65;;;6.13;;
10617;SDS011;5356;43.526;26.534;2023-01-23T14:28:49;14.57;;;7.10;;
10617;SDS011;5356;43.526;26.534;2023-01-23T14:31:20;15.25;;;7.20;;
10617;SDS011;5356;43.526;26.534;2023-01-23T14:33:54;17.77;;;6.78;;
10617;SDS011;5356;43.526;26.534;2023-01-23T14:36:23;14.15;;;6.07;;
10617;SDS011;5356;43.526;26.534;2023-01-23T14:38:48;15.13;;;5.82;;
10617;SDS011;5356;43.526;26.534;2023-01-23T14:41:14;12.77;;;5.40;;
10617;SDS011;5356;43.526;26.534;2023-01-23T14:43:41;13.88;;;5.93;;
10617;SDS011;5356;43.526;26.534;2023-01-23T14:46:15;14.88;;;6.50;;
10617;SDS011;5356;43.526;26.534;2023-01-23T14:48:53;18.67;;;6.28;;
10617;SDS011;5356;43.526;26.534;2023-01-23T14:51:22;13.90;;;7.05;;
10617;SDS011;5356;43.526;26.534;2023-01-23T14:53:50;16.92;;;8.00;;
10617;SDS011;5356;43.526;26.534;2023-01-23T14:56:23;14.35;;;6.32;;
10617;SDS011;5356;43.526;26.534;2023-01-23T14:58:52;13.57;;;6.72;;
10617;SDS011;5356;43.526;26.534;2023-01-23T15:01:19;16.42;;;6.10;;
10617;SDS011;5356;43.526;26.534;2023-01-23T15:03:53;16.30;;;7.55;;
10617;SDS011;5356;43.526;26.534;2023-01-23T15:06:22;16.48;;;6.43;;
10617;SDS011;5356;43.526;26.534;2023-01-23T15:08:47;16.17;;;6.43;;
10617;SDS011;5356;43.526;26.534;2023-01-23T15:11:14;11.13;;;5.10;;
10617;SDS011;5356;43.526;26.534;2023-01-23T15:13:50;14.38;;;5.78;;
10617;SDS011;5356;43.526;26.534;2023-01-23T15:16:20;11.10;;;5.72;;
10617;SDS011;5356;43.526;26.534;2023-01-23T15:18:59;14.00;;;6.05;;
10617;SDS011;5356;43.526;26.534;2023-01-23T15:21:29;16.15;;;6.07;;
10617;SDS011;5356;43.526;26.534;2023-01-23T15:26:32;18.80;;;7.53;;
10617;SDS011;5356;43.526;26.534;2023-01-23T15:29:03;11.48;;;6.50;;
10617;SDS011;5356;43.526;26.534;2023-01-23T15:31:52;15.95;;;7.05;;
10617;SDS011;5356;43.526;26.534;2023-01-23T15:34:24;14.60;;;6.43;;
10617;SDS011;5356;43.526;26.534;2023-01-23T15:44:35;17.75;;;7.82;;
10617;SDS011;5356;43.526;26.534;2023-01-23T15:47:00;22.02;;;8.63;;
10617;SDS011;5356;43.526;26.534;2023-01-23T15:49:28;15.50;;;6.60;;
10617;SDS011;5356;43.526;26.534;2023-01-23T15:51:58;16.83;;;7.13;;
10617;SDS011;5356;43.526;26.534;2023-01-23T15:54:33;17.15;;;7.47;;
10617;SDS011;5356;43.526;26.534;2023-01-23T15:57:00;18.52;;;8.15;;
10617;SDS011;5356;43.526;26.534;2023-01-23T15:59:27;14.95;;;6.47;;
10617;SDS011;5356;43.526;26.534;2023-01-23T16:01:53;14.93;;;6.35;;
10617;SDS011;5356;43.526;26.534;2023-01-23T16:04:19;17.83;;;7.57;;
10617;SDS011;5356;43.526;26.534;2023-01-23T16:06:45;15.77;;;7.03;;
10617;SDS011;5356;43.526;26.534;2023-01-23T16:09:12;13.18;;;7.03;;
10617;SDS011;5356;43.526;26.534;2023-01-23T16:11:45;17.08;;;7.72;;
10617;SDS011;5356;43.526;26.534;2023-01-23T16:14:14;13.60;;;7.85;;
10617;SDS011;5356;43.526;26.534;2023-01-23T16:16:41;14.48;;;6.75;;
10617;SDS011;5356;43.526;26.534;2023-01-23T16:19:06;18.02;;;8.63;;
10617;SDS011;5356;43.526;26.534;2023-01-23T16:21:32;19.92;;;9.05;;
10617;SDS011;5356;43.526;26.534;2023-01-23T16:23:57;16.38;;;8.00;;
10617;SDS011;5356;43.526;26.534;2023-01-23T16:26:23;20.13;;;9.45;;
10617;SDS011;5356;43.526;26.534;2023-01-23T16:28:52;21.25;;;9.70;;
10617;SDS011;5356;43.526;26.534;2023-01-23T16:31:19;18.92;;;8.88;;
10617;SDS011;5356;43.526;26.534;2023-01-23T16:33:44;18.70;;;8.77;;
10617;SDS011;5356;43.526;26.534;2023-01-23T16:36:16;16.30;;;8.63;;
10617;SDS011;5356;43.526;26.534;2023-01-23T16:38:46;17.17;;;8.07;;
10617;SDS011;5356;43.526;26.534;2023-01-23T16:41:15;20.08;;;8.40;;
10617;SDS011;5356;43.526;26.534;2023-01-23T16:43:41;14.90;;;8.35;;
10617;SDS011;5356;43.526;26.534;2023-01-23T16:46:07;17.27;;;8.40;;
10617;SDS011;5356;43.526;26.534;2023-01-23T16:48:33;18.10;;;8.15;;
10617;SDS011;5356;43.526;26.534;2023-01-23T16:51:00;19.02;;;8.20;;
10617;SDS011;5356;43.526;26.534;2023-01-23T16:53:33;20.35;;;8.48;;
10617;SDS011;5356;43.526;26.534;2023-01-23T16:56:02;13.82;;;9.13;;
10617;SDS011;5356;43.526;26.534;2023-01-23T16:58:47;20.73;;;7.82;;
10617;SDS011;5356;43.526;26.534;2023-01-23T17:01:17;18.25;;;7.78;;
10617;SDS011;5356;43.526;26.534;2023-01-23T17:03:47;17.65;;;7.63;;
10617;SDS011;5356;43.526;26.534;2023-01-23T17:06:21;14.35;;;6.55;;
10617;SDS011;5356;43.526;26.534;2023-01-23T17:08:47;14.35;;;7.18;;